createdAt,value
2022-09-28T00:00:04.314Z,92782.50
2022-09-28T00:01:10.486Z,92786.34
2022-09-28T00:02:07.218Z,92783.69
2022-09-28T00:03:03.945Z,92783.06
2022-09-28T00:04:01.511Z,92778.84
2022-09-28T00:04:58.151Z,92775.69
2022-09-28T00:06:01.253Z,92780.72
2022-09-28T00:06:57.800Z,92780.66
2022-09-28T00:07:54.658Z,92779.13
2022-09-28T00:08:51.558Z,92781.88
2022-09-28T00:09:48.109Z,92786.41
2022-09-28T00:10:46.364Z,92782.63
2022-09-28T00:11:43.880Z,92782.00
2022-09-28T00:12:40.470Z,92781.63
2022-09-28T00:13:37.040Z,92784.66
2022-09-28T00:14:34.116Z,92783.75
2022-09-28T00:15:30.697Z,92782.13
2022-09-28T00:16:30.105Z,92787.84
2022-09-28T00:17:26.689Z,92789.09
2022-09-28T00:18:23.334Z,92794.78
2022-09-28T00:19:19.917Z,92790.22
2022-09-28T00:20:18.046Z,92794.47
2022-09-28T00:21:17.949Z,92793.31
2022-09-28T00:22:14.553Z,92795.59
2022-09-28T00:23:11.204Z,92790.22
2022-09-28T00:24:12.597Z,92798.69
2022-09-28T00:25:09.650Z,92787.88
2022-09-28T00:26:06.408Z,92788.88
2022-09-28T00:27:04.056Z,92782.22
2022-09-28T00:28:00.846Z,92790.97
2022-09-28T00:29:00.235Z,92789.41
2022-09-28T00:29:57.103Z,92780.66
2022-09-28T00:30:56.598Z,92781.91
2022-09-28T00:31:59.947Z,92788.88
2022-09-28T00:32:56.647Z,92768.72
2022-09-28T00:33:56.835Z,92763.38
2022-09-28T00:34:53.478Z,92780.94
2022-09-28T00:35:58.991Z,92777.72
2022-09-28T00:36:55.550Z,92786.94
2022-09-28T00:37:52.205Z,92747.19
2022-09-28T00:38:49.004Z,92774.28
2022-09-28T00:39:46.618Z,92779.69
2022-09-28T00:40:43.184Z,92776.19
2022-09-28T00:41:40.268Z,92771.19
2022-09-28T00:42:36.868Z,92772.31
2022-09-28T00:43:33.643Z,92774.72
2022-09-28T00:44:41.377Z,92772.34
2022-09-28T00:45:38.083Z,92772.25
2022-09-28T00:46:36.418Z,92767.13
2022-09-28T00:47:53.073Z,92768.13
2022-09-28T00:49:07.540Z,92767.00
2022-09-28T00:50:20.546Z,92772.00
2022-09-28T00:51:17.488Z,92771.63
2022-09-28T00:52:20.035Z,92778.44
2022-09-28T00:53:26.513Z,92771.41
2022-09-28T00:54:23.259Z,92776.94
2022-09-28T00:55:26.703Z,92771.13
2022-09-28T00:56:26.944Z,92781.38
2022-09-28T00:57:24.102Z,92770.25
2022-09-28T00:58:27.522Z,92771.03
2022-09-28T00:59:24.872Z,92768.06
2022-09-28T01:00:22.058Z,92779.47
2022-09-28T01:01:18.941Z,92783.78
2022-09-28T01:02:15.717Z,92783.78
2022-09-28T01:03:14.302Z,92777.25
2022-09-28T01:04:11.129Z,92771.69
2022-09-28T01:05:10.478Z,92781.09
2022-09-28T01:06:08.736Z,92782.59
2022-09-28T01:07:08.923Z,92778.00
2022-09-28T01:08:06.309Z,92785.94
2022-09-28T01:09:06.588Z,92777.66
2022-09-28T01:10:04.146Z,92771.47
2022-09-28T01:11:01.245Z,92771.25
2022-09-28T01:11:57.799Z,92775.84
2022-09-28T01:12:55.668Z,92764.31
2022-09-28T01:13:55.303Z,92772.81
2022-09-28T01:14:52.770Z,92775.97
2022-09-28T01:15:58.492Z,92776.97
2022-09-28T01:17:25.001Z,92756.59
2022-09-28T01:18:59.048Z,92764.09
2022-09-28T01:19:58.338Z,92767.63
2022-09-28T01:21:03.969Z,92774.25
2022-09-28T01:22:48.604Z,92772.00
2022-09-28T01:23:48.255Z,92772.50
2022-09-28T01:25:01.858Z,92783.56
2022-09-28T01:26:20.306Z,92781.22
2022-09-28T01:27:39.549Z,92780.84
2022-09-28T01:28:36.572Z,92780.88
2022-09-28T01:29:38.913Z,92775.91
2022-09-28T01:31:00.647Z,92774.22
2022-09-28T01:32:21.837Z,92763.13
2022-09-28T01:33:26.881Z,92774.34
2022-09-28T01:34:31.441Z,92776.34
2022-09-28T01:35:44.993Z,92779.28
2022-09-28T01:36:55.014Z,92776.63
2022-09-28T01:38:01.739Z,92771.03
2022-09-28T01:39:12.893Z,92770.69
2022-09-28T01:40:11.955Z,92764.19
2022-09-28T01:41:09.955Z,92766.25
2022-09-28T01:42:14.490Z,92774.63
2022-09-28T01:43:36.356Z,92754.75
2022-09-28T01:44:39.916Z,92768.72
2022-09-28T01:45:47.110Z,92756.09
2022-09-28T01:46:48.450Z,92771.38
2022-09-28T01:47:47.039Z,92781.69
2022-09-28T01:48:57.305Z,92770.91
2022-09-28T01:50:01.505Z,92787.75
2022-09-28T01:51:02.869Z,92785.56
2022-09-28T01:52:29.492Z,92781.66
2022-09-28T01:53:35.808Z,92773.97
2022-09-28T01:54:42.376Z,92792.31
2022-09-28T01:55:46.331Z,92786.75
2022-09-28T01:56:52.814Z,92787.22
2022-09-28T01:57:56.019Z,92790.34
2022-09-28T01:59:06.513Z,92788.44
2022-09-28T02:00:10.634Z,92789.63
2022-09-28T02:01:14.214Z,92786.22
2022-09-28T02:02:22.677Z,92795.38
2022-09-28T02:03:24.024Z,92790.03
2022-09-28T02:04:43.865Z,92800.28
2022-09-28T02:05:47.027Z,92789.63
2022-09-28T02:06:50.499Z,92793.81
2022-09-28T02:08:15.963Z,92795.69
2022-09-28T02:09:21.556Z,92792.97
2022-09-28T02:10:24.741Z,92774.53
2022-09-28T02:11:22.713Z,92781.94
2022-09-28T02:12:25.740Z,92780.88
2022-09-28T02:13:28.332Z,92788.75
2022-09-28T02:14:26.456Z,92790.03
2022-09-28T02:15:22.969Z,92792.81
2022-09-28T02:16:42.488Z,92792.81
2022-09-28T02:17:39.438Z,92788.56
2022-09-28T02:18:36.530Z,92788.97
2022-09-28T02:19:33.733Z,92789.66
2022-09-28T02:20:34.443Z,92798.06
2022-09-28T02:21:54.067Z,92795.31
2022-09-28T02:22:54.252Z,92798.31
2022-09-28T02:23:57.429Z,92770.56
2022-09-28T02:25:09.930Z,92786.16
2022-09-28T02:26:10.689Z,92789.34
2022-09-28T02:27:14.769Z,92788.50
2022-09-28T02:28:13.519Z,92790.22
2022-09-28T02:29:10.577Z,92787.19
2022-09-28T02:30:08.120Z,92794.00
2022-09-28T02:31:04.885Z,92783.50
2022-09-28T02:32:01.716Z,92788.63
2022-09-28T02:33:05.547Z,92768.09
2022-09-28T02:34:02.194Z,92796.28
2022-09-28T02:34:59.448Z,92787.47
2022-09-28T02:35:58.407Z,92790.84
2022-09-28T02:36:55.049Z,92792.78
2022-09-28T02:37:51.757Z,92794.97
2022-09-28T02:38:48.681Z,92795.22
2022-09-28T02:39:45.291Z,92799.50
2022-09-28T02:40:46.086Z,92797.25
2022-09-28T02:41:48.802Z,92805.34
2022-09-28T02:42:54.947Z,92799.50
2022-09-28T02:44:36.271Z,92763.13
2022-09-28T02:45:48.327Z,92802.16
2022-09-28T02:46:48.102Z,92795.28
2022-09-28T02:48:09.025Z,92796.00
2022-09-28T02:49:22.142Z,92797.09
2022-09-28T02:50:45.158Z,92800.75
2022-09-28T02:52:04.452Z,92807.78
2022-09-28T02:53:03.829Z,92811.91
2022-09-28T02:54:21.643Z,92810.06
2022-09-28T02:55:35.340Z,92802.09
2022-09-28T02:57:13.281Z,92798.88
2022-09-28T02:58:24.220Z,92797.56
2022-09-28T02:59:33.679Z,92797.09
2022-09-28T03:00:36.367Z,92788.06
2022-09-28T03:01:50.712Z,92790.19
2022-09-28T03:03:09.403Z,92785.94
2022-09-28T03:04:11.175Z,92790.66
2022-09-28T03:05:22.767Z,92797.53
2022-09-28T03:06:45.861Z,92800.00
2022-09-28T03:08:08.737Z,92797.72
2022-09-28T03:09:23.207Z,92798.88
2022-09-28T03:10:30.041Z,92800.44
2022-09-28T03:11:54.046Z,92808.09
2022-09-28T03:12:53.657Z,92806.94
2022-09-28T03:13:51.840Z,92807.34
2022-09-28T03:14:48.430Z,92813.91
2022-09-28T03:15:48.652Z,92813.84
2022-09-28T03:16:46.205Z,92802.16
2022-09-28T03:17:42.842Z,92819.28
2022-09-28T03:18:39.821Z,92812.97
2022-09-28T03:19:37.142Z,92797.16
2022-09-28T03:20:34.309Z,92814.66
2022-09-28T03:21:30.853Z,92813.09
2022-09-28T03:22:27.406Z,92813.44
2022-09-28T03:23:25.342Z,92814.84
2022-09-28T03:24:22.239Z,92813.19
2022-09-28T03:25:18.845Z,92804.41
2022-09-28T03:26:16.934Z,92808.19
2022-09-28T03:27:13.532Z,92816.50
2022-09-28T03:28:10.103Z,92809.66
2022-09-28T03:29:06.692Z,92809.03
2022-09-28T03:30:03.556Z,92812.97
2022-09-28T03:31:00.141Z,92809.34
2022-09-28T03:31:56.793Z,92810.34
2022-09-28T03:33:00.865Z,92818.16
2022-09-28T03:33:57.416Z,92814.72
2022-09-28T03:34:54.400Z,92817.06
2022-09-28T03:35:51.158Z,92814.03
2022-09-28T03:36:47.718Z,92809.13
2022-09-28T03:37:44.339Z,92821.28
2022-09-28T03:38:41.257Z,92820.50
2022-09-28T03:39:37.792Z,92818.50
2022-09-28T03:40:34.482Z,92817.25
2022-09-28T03:41:31.120Z,92818.38
2022-09-28T03:42:27.768Z,92825.94
2022-09-28T03:43:25.376Z,92824.84
2022-09-28T03:44:21.911Z,92826.66
2022-09-28T03:45:18.476Z,92826.50
2022-09-28T03:46:15.166Z,92831.28
2022-09-28T03:47:11.914Z,92829.78
2022-09-28T03:48:08.595Z,92824.50
2022-09-28T03:49:05.318Z,92827.72
2022-09-28T03:50:02.239Z,92829.19
2022-09-28T03:51:01.310Z,92826.38
2022-09-28T03:51:57.957Z,92826.69
2022-09-28T03:52:54.574Z,92822.06
2022-09-28T03:53:51.131Z,92822.94
2022-09-28T03:54:49.377Z,92828.00
2022-09-28T03:55:46.122Z,92829.16
2022-09-28T03:56:42.669Z,92824.56
2022-09-28T03:57:39.221Z,92824.81
2022-09-28T03:58:35.858Z,92825.91
2022-09-28T03:59:32.434Z,92830.16
2022-09-28T04:00:28.998Z,92830.56
2022-09-28T04:01:25.666Z,92825.63
2022-09-28T04:02:22.498Z,92827.94
2022-09-28T04:03:19.079Z,92830.94
2022-09-28T04:04:16.137Z,92819.84
2022-09-28T04:05:12.705Z,92832.84
2022-09-28T04:06:09.500Z,92833.63
2022-09-28T04:07:06.029Z,92822.59
2022-09-28T04:08:02.756Z,92827.16
2022-09-28T04:08:59.962Z,92835.16
2022-09-28T04:09:56.601Z,92823.34
2022-09-28T04:10:56.666Z,92833.97
2022-09-28T04:12:03.967Z,92837.28
2022-09-28T04:13:00.966Z,92832.03
2022-09-28T04:13:57.609Z,92838.25
2022-09-28T04:14:54.145Z,92837.91
2022-09-28T04:15:58.311Z,92843.31
2022-09-28T04:16:55.162Z,92829.97
2022-09-28T04:17:52.227Z,92832.25
2022-09-28T04:18:48.916Z,92834.50
2022-09-28T04:19:45.493Z,92831.69
2022-09-28T04:20:45.403Z,92827.06
2022-09-28T04:21:42.039Z,92817.91
2022-09-28T04:22:38.612Z,92835.56
2022-09-28T04:23:36.915Z,92831.69
2022-09-28T04:24:33.785Z,92837.88
2022-09-28T04:25:30.401Z,92837.56
2022-09-28T04:26:28.422Z,92841.41
2022-09-28T04:27:43.264Z,92838.03
2022-09-28T04:29:00.658Z,92843.41
2022-09-28T04:29:59.491Z,92826.97
2022-09-28T04:30:56.054Z,92829.25
2022-09-28T04:31:54.979Z,92838.03
2022-09-28T04:32:51.703Z,92830.41
2022-09-28T04:33:48.628Z,92823.84
2022-09-28T04:34:45.235Z,92831.84
2022-09-28T04:35:41.874Z,92826.38
2022-09-28T04:36:38.499Z,92834.47
2022-09-28T04:37:35.092Z,92834.09
2022-09-28T04:38:51.937Z,92833.00
2022-09-28T04:39:49.051Z,92835.69
2022-09-28T04:40:48.728Z,92831.56
2022-09-28T04:41:47.981Z,92834.53
2022-09-28T04:42:44.655Z,92835.28
2022-09-28T04:43:41.281Z,92830.38
2022-09-28T04:44:37.841Z,92831.94
2022-09-28T04:45:34.470Z,92833.84
2022-09-28T04:46:31.452Z,92812.78
2022-09-28T04:47:29.711Z,92818.16
2022-09-28T04:48:27.648Z,92828.50
2022-09-28T04:49:24.748Z,92832.31
2022-09-28T04:50:21.453Z,92833.91
2022-09-28T04:51:18.067Z,92832.38
2022-09-28T04:52:18.346Z,92836.63
2022-09-28T04:53:15.271Z,92828.63
2022-09-28T04:54:11.839Z,92839.31
2022-09-28T04:55:12.017Z,92840.09
2022-09-28T04:56:12.652Z,92833.28
2022-09-28T04:57:09.312Z,92832.56
2022-09-28T04:58:05.874Z,92838.75
2022-09-28T04:59:02.960Z,92836.91
2022-09-28T04:59:59.517Z,92826.31
2022-09-28T05:01:01.608Z,92836.34
2022-09-28T05:01:58.329Z,92835.19
2022-09-28T05:02:55.469Z,92841.81
2022-09-28T05:03:52.089Z,92837.28
2022-09-28T05:04:48.683Z,92837.28
2022-09-28T05:05:45.725Z,92835.41
2022-09-28T05:06:42.460Z,92836.94
2022-09-28T05:07:39.141Z,92832.34
2022-09-28T05:08:36.203Z,92837.53
2022-09-28T05:09:36.284Z,92825.31
2022-09-28T05:10:34.901Z,92829.22
2022-09-28T05:11:31.531Z,92826.22
2022-09-28T05:12:28.101Z,92835.75
2022-09-28T05:13:24.723Z,92827.00
2022-09-28T05:14:24.537Z,92822.84
2022-09-28T05:15:21.093Z,92819.78
2022-09-28T05:16:18.099Z,92823.63
2022-09-28T05:17:14.849Z,92824.75
2022-09-28T05:18:11.403Z,92817.88
2022-09-28T05:19:08.027Z,92822.81
2022-09-28T05:20:05.275Z,92813.66
2022-09-28T05:21:01.993Z,92817.84
2022-09-28T05:21:58.535Z,92819.78
2022-09-28T05:22:55.209Z,92815.56
2022-09-28T05:23:52.060Z,92819.00
2022-09-28T05:24:48.823Z,92823.97
2022-09-28T05:25:45.941Z,92817.47
2022-09-28T05:26:42.500Z,92826.28
2022-09-28T05:27:39.053Z,92818.59
2022-09-28T05:28:35.693Z,92820.91
2022-09-28T05:29:32.738Z,92825.53
2022-09-28T05:30:29.471Z,92829.69
2022-09-28T05:31:27.363Z,92827.41
2022-09-28T05:32:24.160Z,92823.19
2022-09-28T05:33:21.002Z,92820.94
2022-09-28T05:34:17.545Z,92808.25
2022-09-28T05:35:17.108Z,92838.81
2022-09-28T05:36:13.664Z,92834.59
2022-09-28T05:37:10.235Z,92839.59
2022-09-28T05:38:06.818Z,92830.44
2022-09-28T05:39:04.123Z,92824.72
2022-09-28T05:40:00.883Z,92836.19
2022-09-28T05:40:57.867Z,92839.28
2022-09-28T05:41:55.841Z,92837.38
2022-09-28T05:42:52.567Z,92825.13
2022-09-28T05:43:51.544Z,92837.00
2022-09-28T05:44:48.332Z,92845.78
2022-09-28T05:45:44.948Z,92840.81
2022-09-28T05:46:41.578Z,92841.56
2022-09-28T05:47:43.186Z,92844.63
2022-09-28T05:48:39.832Z,92834.31
2022-09-28T05:49:36.458Z,92839.63
2022-09-28T05:50:33.071Z,92835.44
2022-09-28T05:51:29.634Z,92841.19
2022-09-28T05:52:26.265Z,92851.50
2022-09-28T05:53:22.845Z,92849.22
2022-09-28T05:54:19.582Z,92851.91
2022-09-28T05:55:16.251Z,92843.09
2022-09-28T05:56:13.146Z,92842.34
2022-09-28T05:57:10.080Z,92853.78
2022-09-28T05:58:07.704Z,92859.06
2022-09-28T05:59:06.207Z,92861.06
2022-09-28T06:00:09.142Z,92857.94
2022-09-28T06:01:05.821Z,92854.81
2022-09-28T06:02:03.560Z,92860.53
2022-09-28T06:03:11.836Z,92868.19
2022-09-28T06:04:09.046Z,92859.59
2022-09-28T06:05:05.984Z,92873.88
2022-09-28T06:06:02.804Z,92856.97
2022-09-28T06:06:59.716Z,92858.47
2022-09-28T06:07:57.864Z,92864.13
2022-09-28T06:08:54.467Z,92877.44
2022-09-28T06:09:51.017Z,92878.72
2022-09-28T06:10:47.871Z,92872.22
2022-09-28T06:11:44.492Z,92867.63
2022-09-28T06:12:41.379Z,92875.31
2022-09-28T06:13:39.867Z,92865.91
2022-09-28T06:14:36.526Z,92873.59
2022-09-28T06:15:35.490Z,92874.34
2022-09-28T06:16:32.203Z,92870.66
2022-09-28T06:17:28.797Z,92859.16
2022-09-28T06:18:25.401Z,92881.38
2022-09-28T06:19:22.063Z,92881.00
2022-09-28T06:20:18.682Z,92885.56
2022-09-28T06:21:15.409Z,92884.84
2022-09-28T06:22:12.031Z,92888.63
2022-09-28T06:23:09.939Z,92851.44
2022-09-28T06:24:06.716Z,92892.47
2022-09-28T06:25:04.230Z,92893.25
2022-09-28T06:26:00.841Z,92898.22
2022-09-28T06:26:57.440Z,92887.50
2022-09-28T06:27:59.135Z,92884.81
2022-09-28T06:28:55.713Z,92885.53
2022-09-28T06:29:52.886Z,92885.81
2022-09-28T06:30:49.639Z,92885.53
2022-09-28T06:31:47.301Z,92885.19
2022-09-28T06:32:43.860Z,92886.34
2022-09-28T06:33:42.057Z,92895.53
2022-09-28T06:34:38.623Z,92891.34
2022-09-28T06:35:35.307Z,92884.06
2022-09-28T06:36:32.051Z,92882.16
2022-09-28T06:37:28.985Z,92882.50
2022-09-28T06:38:25.570Z,92890.53
2022-09-28T06:39:22.184Z,92892.84
2022-09-28T06:40:19.418Z,92890.94
2022-09-28T06:41:16.066Z,92888.28
2022-09-28T06:42:12.681Z,92875.25
2022-09-28T06:43:15.340Z,92873.72
2022-09-28T06:44:12.082Z,92865.28
2022-09-28T06:45:09.002Z,92876.66
2022-09-28T06:46:07.297Z,92877.06
2022-09-28T06:47:03.971Z,92874.00
2022-09-28T06:48:01.955Z,92882.78
2022-09-28T06:48:58.655Z,92880.09
2022-09-28T06:49:55.401Z,92872.28
2022-09-28T06:50:52.054Z,92874.13
2022-09-28T06:51:48.904Z,92881.47
2022-09-28T06:52:45.545Z,92873.75
2022-09-28T06:53:42.630Z,92875.09
2022-09-28T06:54:39.210Z,92881.16
2022-09-28T06:55:39.035Z,92875.22
2022-09-28T06:56:37.116Z,92879.69
2022-09-28T06:57:33.749Z,92871.34
2022-09-28T06:58:31.576Z,92867.91
2022-09-28T06:59:29.935Z,92869.13
2022-09-28T07:00:28.145Z,92876.75
2022-09-28T07:01:25.819Z,92878.78
2022-09-28T07:02:23.157Z,92877.06
2022-09-28T07:03:22.398Z,92882.38
2022-09-28T07:04:19.001Z,92887.44
2022-09-28T07:05:15.725Z,92880.66
2022-09-28T07:06:12.888Z,92870.38
2022-09-28T07:07:10.731Z,92865.44
2022-09-28T07:08:07.886Z,92885.38
2022-09-28T07:09:26.969Z,92888.69
2022-09-28T07:10:30.382Z,92887.91
2022-09-28T07:11:27.508Z,92883.38
2022-09-28T07:12:26.409Z,92889.53
2022-09-28T07:13:49.431Z,92889.69
2022-09-28T07:14:48.279Z,92888.44
2022-09-28T07:15:45.871Z,92895.91
2022-09-28T07:17:08.999Z,92893.53
2022-09-28T07:18:03.238Z,92898.31
2022-09-28T07:19:00.428Z,92897.03
2022-09-28T07:20:02.917Z,92886.66
2022-09-28T07:21:08.169Z,92909.41
2022-09-28T07:22:05.941Z,92897.59
2022-09-28T07:23:16.771Z,92907.75
2022-09-28T07:24:14.483Z,92903.38
2022-09-28T07:25:11.176Z,92891.72
2022-09-28T07:26:09.127Z,92909.41
2022-09-28T07:27:05.913Z,92909.22
2022-09-28T07:28:03.962Z,92909.63
2022-09-28T07:29:00.644Z,92908.47
2022-09-28T07:29:58.866Z,92906.16
2022-09-28T07:30:57.691Z,92914.53
2022-09-28T07:31:54.586Z,92912.28
2022-09-28T07:32:51.738Z,92911.56
2022-09-28T07:33:51.236Z,92914.66
2022-09-28T07:34:48.792Z,92910.00
2022-09-28T07:35:55.755Z,92909.69
2022-09-28T07:36:58.898Z,92915.41
2022-09-28T07:38:03.840Z,92911.94
2022-09-28T07:39:01.257Z,92887.91
2022-09-28T07:40:16.554Z,92909.28
2022-09-28T07:41:14.303Z,92912.72
2022-09-28T07:42:10.952Z,92914.19
2022-09-28T07:43:07.613Z,92908.81
2022-09-28T07:44:07.562Z,92883.50
2022-09-28T07:45:04.660Z,92912.19
2022-09-28T07:46:01.512Z,92914.84
2022-09-28T07:46:58.186Z,92914.38
2022-09-28T07:47:56.074Z,92916.72
2022-09-28T07:48:52.856Z,92907.91
2022-09-28T07:49:51.990Z,92915.88
2022-09-28T07:50:50.306Z,92908.59
2022-09-28T07:51:46.899Z,92914.91
2022-09-28T07:52:44.371Z,92899.34
2022-09-28T07:53:41.086Z,92912.66
2022-09-28T07:54:39.477Z,92907.88
2022-09-28T07:55:36.040Z,92905.91
2022-09-28T07:56:34.002Z,92913.19
2022-09-28T07:57:33.277Z,92905.41
2022-09-28T07:58:30.736Z,92905.94
2022-09-28T07:59:27.330Z,92909.72
2022-09-28T08:00:23.959Z,92908.91
2022-09-28T08:01:21.645Z,92913.41
2022-09-28T08:02:20.053Z,92911.38
2022-09-28T08:03:18.683Z,92910.81
2022-09-28T08:04:15.674Z,92917.66
2022-09-28T08:05:12.492Z,92913.66
2022-09-28T08:06:11.293Z,92904.19
2022-09-28T08:07:11.598Z,92906.59
2022-09-28T08:08:08.598Z,92917.69
2022-09-28T08:09:05.325Z,92900.44
2022-09-28T08:10:01.909Z,92908.94
2022-09-28T08:10:59.018Z,92908.41
2022-09-28T08:11:55.904Z,92913.66
2022-09-28T08:12:59.182Z,92911.25
2022-09-28T08:14:00.301Z,92917.06
2022-09-28T08:14:56.944Z,92907.19
2022-09-28T08:15:54.605Z,92911.28
2022-09-28T08:16:53.365Z,92914.66
2022-09-28T08:17:50.545Z,92914.22
2022-09-28T08:18:49.405Z,92900.75
2022-09-28T08:20:04.512Z,92915.06
2022-09-28T08:21:21.894Z,92906.06
2022-09-28T08:22:19.894Z,92919.88
2022-09-28T08:23:17.131Z,92905.31
2022-09-28T08:24:15.501Z,92907.34
2022-09-28T08:25:12.212Z,92917.00
2022-09-28T08:26:13.273Z,92905.38
2022-09-28T08:27:12.938Z,92906.34
2022-09-28T08:28:09.477Z,92915.69
2022-09-28T08:29:06.480Z,92917.50
2022-09-28T08:30:03.466Z,92912.13
2022-09-28T08:31:01.766Z,92920.59
2022-09-28T08:32:02.044Z,92924.44
2022-09-28T08:32:58.647Z,92911.03
2022-09-28T08:33:56.816Z,92919.34
2022-09-28T08:34:55.882Z,92917.91
2022-09-28T08:36:01.379Z,92913.09
2022-09-28T08:36:59.137Z,92914.00
2022-09-28T08:37:55.842Z,92916.22
2022-09-28T08:38:52.670Z,92920.81
2022-09-28T08:39:49.622Z,92909.69
2022-09-28T08:40:55.755Z,92916.81
2022-09-28T08:42:00.731Z,92926.03
2022-09-28T08:43:07.055Z,92923.53
2022-09-28T08:44:17.516Z,92929.22
2022-09-28T08:45:22.807Z,92931.97
2022-09-28T08:46:26.993Z,92930.63
2022-09-28T08:47:45.637Z,92931.53
2022-09-28T08:49:24.126Z,92927.13
2022-09-28T08:50:18.934Z,92932.09
2022-09-28T08:51:42.297Z,92922.03
2022-09-28T08:52:40.290Z,92924.69
2022-09-28T08:53:46.115Z,92923.13
2022-09-28T08:54:50.361Z,92920.31
2022-09-28T08:55:47.023Z,92928.50
2022-09-28T08:56:59.403Z,92925.50
2022-09-28T08:58:05.147Z,92905.72
2022-09-28T08:59:05.479Z,92922.53
2022-09-28T09:00:08.357Z,92921.50
2022-09-28T09:01:16.519Z,92917.03
2022-09-28T09:02:20.057Z,92912.25
2022-09-28T09:03:22.506Z,92915.16
2022-09-28T09:04:19.468Z,92907.84
2022-09-28T09:05:20.019Z,92915.84
2022-09-28T09:06:45.686Z,92904.63
2022-09-28T09:08:08.991Z,92910.91
2022-09-28T09:09:47.184Z,92913.97
2022-09-28T09:11:06.531Z,92913.41
2022-09-28T09:12:45.944Z,92909.28
2022-09-28T09:14:08.993Z,92916.69
2022-09-28T09:15:28.512Z,92910.31
2022-09-28T09:17:00.307Z,92908.69
2022-09-28T09:18:00.641Z,92915.78
2022-09-28T09:19:17.385Z,92902.97
2022-09-28T09:20:20.508Z,92908.28
2022-09-28T09:21:43.254Z,92905.84
2022-09-28T09:22:45.262Z,92906.72
2022-09-28T09:24:15.837Z,92901.31
2022-09-28T09:25:29.965Z,92906.56
2022-09-28T09:26:38.645Z,92907.59
2022-09-28T09:27:56.383Z,92906.56
2022-09-28T09:29:44.791Z,92908.97
2022-09-28T09:31:18.572Z,92916.03
2022-09-28T09:33:02.593Z,92911.19
2022-09-28T09:34:28.613Z,92917.16
2022-09-28T09:36:11.830Z,92910.63
2022-09-28T09:37:17.900Z,92911.97
2022-09-28T09:38:51.117Z,92914.66
2022-09-28T09:40:09.231Z,92911.06
2022-09-28T09:41:15.503Z,92913.00
2022-09-28T09:42:14.847Z,92903.59
2022-09-28T09:43:29.483Z,92909.13
2022-09-28T09:45:06.477Z,92902.41
2022-09-28T09:46:18.292Z,92904.69
2022-09-28T09:47:23.495Z,92906.00
2022-09-28T09:48:27.534Z,92904.47
2022-09-28T09:49:45.261Z,92909.59
2022-09-28T09:50:50.503Z,92903.03
2022-09-28T09:52:03.082Z,92901.63
2022-09-28T09:53:36.156Z,92904.53
2022-09-28T09:54:53.286Z,92908.41
2022-09-28T09:55:57.337Z,92904.00
2022-09-28T09:57:27.071Z,92901.94
2022-09-28T09:58:34.330Z,92897.75
2022-09-28T09:59:35.089Z,92891.66
2022-09-28T10:00:32.359Z,92891.16
2022-09-28T10:01:39.088Z,92891.13
2022-09-28T10:02:36.050Z,92901.97
2022-09-28T10:03:36.731Z,92901.16
2022-09-28T10:04:40.864Z,92894.84
2022-09-28T10:05:39.225Z,92891.31
2022-09-28T10:06:39.364Z,92884.41
2022-09-28T10:07:46.695Z,92892.34
2022-09-28T10:08:50.300Z,92897.59
2022-09-28T10:09:48.993Z,92893.34
2022-09-28T10:11:13.275Z,92886.47
2022-09-28T10:12:11.940Z,92883.09
2022-09-28T10:13:09.418Z,92887.41
2022-09-28T10:14:08.289Z,92888.09
2022-09-28T10:15:07.675Z,92889.72
2022-09-28T10:16:05.962Z,92882.00
2022-09-28T10:17:03.969Z,92894.56
2022-09-28T10:18:06.872Z,92888.78
2022-09-28T10:19:03.468Z,92889.97
2022-09-28T10:20:01.127Z,92884.63
2022-09-28T10:20:57.998Z,92884.03
2022-09-28T10:21:55.043Z,92881.78
2022-09-28T10:22:52.412Z,92882.63
2022-09-28T10:23:59.594Z,92867.75
2022-09-28T10:24:58.390Z,92883.28
2022-09-28T10:26:03.157Z,92876.19
2022-09-28T10:27:14.274Z,92877.28
2022-09-28T10:28:19.606Z,92880.75
2022-09-28T10:29:22.263Z,92872.28
2022-09-28T10:30:25.165Z,92866.25
2022-09-28T10:31:39.058Z,92871.34
2022-09-28T10:32:44.857Z,92867.09
2022-09-28T10:33:42.421Z,92868.13
2022-09-28T10:34:39.122Z,92876.88
2022-09-28T10:35:47.835Z,92865.56
2022-09-28T10:36:55.238Z,92872.63
2022-09-28T10:37:59.911Z,92867.84
2022-09-28T10:38:57.977Z,92865.66
2022-09-28T10:39:56.354Z,92872.00
2022-09-28T10:41:00.881Z,92865.72
2022-09-28T10:42:00.231Z,92862.50
2022-09-28T10:43:01.592Z,92868.63
2022-09-28T10:44:11.101Z,92861.25
2022-09-28T10:45:22.323Z,92859.72
2022-09-28T10:46:23.624Z,92855.56
2022-09-28T10:47:24.055Z,92856.47
2022-09-28T10:48:22.359Z,92854.34
2022-09-28T10:49:22.214Z,92853.31
2022-09-28T10:50:25.533Z,92848.91
2022-09-28T10:51:47.279Z,92857.84
2022-09-28T10:52:46.281Z,92851.44
2022-09-28T10:53:57.127Z,92836.66
2022-09-28T10:54:53.961Z,92844.81
2022-09-28T10:56:08.853Z,92830.06
2022-09-28T10:57:28.065Z,92838.09
2022-09-28T10:58:42.193Z,92847.75
2022-09-28T10:59:41.861Z,92842.78
2022-09-28T11:00:43.600Z,92848.38
2022-09-28T11:01:40.337Z,92840.84
2022-09-28T11:02:40.281Z,92852.91
2022-09-28T11:04:01.733Z,92852.47
2022-09-28T11:05:01.653Z,92852.63
2022-09-28T11:06:04.261Z,92847.41
2022-09-28T11:07:02.010Z,92850.56
2022-09-28T11:08:02.776Z,92838.09
2022-09-28T11:09:06.163Z,92843.84
2022-09-28T11:10:04.144Z,92840.00
2022-09-28T11:11:06.969Z,92842.84
2022-09-28T11:12:06.528Z,92838.47
2022-09-28T11:13:03.273Z,92839.84
2022-09-28T11:14:01.381Z,92825.84
2022-09-28T11:15:04.250Z,92827.84
2022-09-28T11:16:01.047Z,92831.19
2022-09-28T11:17:27.905Z,92835.19
2022-09-28T11:18:32.486Z,92831.63
2022-09-28T11:19:31.985Z,92816.16
2022-09-28T11:20:29.264Z,92824.22
2022-09-28T11:21:32.564Z,92819.13
2022-09-28T11:22:41.768Z,92817.56
2022-09-28T11:23:38.471Z,92826.59
2022-09-28T11:24:35.083Z,92828.66
2022-09-28T11:25:31.776Z,92824.81
2022-09-28T11:26:37.097Z,92826.00
2022-09-28T11:27:33.777Z,92823.63
2022-09-28T11:28:37.542Z,92830.97
2022-09-28T11:29:44.298Z,92831.16
2022-09-28T11:30:52.885Z,92822.94
2022-09-28T11:31:49.811Z,92818.38
2022-09-28T11:32:47.374Z,92805.63
2022-09-28T11:33:47.543Z,92805.50
2022-09-28T11:34:59.179Z,92813.66
2022-09-28T11:36:09.453Z,92815.75
2022-09-28T11:37:36.721Z,92812.19
2022-09-28T11:38:40.882Z,92808.91
2022-09-28T11:39:48.678Z,92800.81
2022-09-28T11:41:04.860Z,92803.63
2022-09-28T11:42:16.320Z,92807.78
2022-09-28T11:43:23.994Z,92769.66
2022-09-28T11:44:38.831Z,92807.03
2022-09-28T11:45:38.100Z,92808.53
2022-09-28T11:47:06.286Z,92802.47
2022-09-28T11:48:07.157Z,92804.63
2022-09-28T11:49:40.321Z,92801.94
2022-09-28T11:50:46.478Z,92806.59
2022-09-28T11:51:45.635Z,92810.72
2022-09-28T11:52:48.135Z,92811.19
2022-09-28T11:53:53.557Z,92808.16
2022-09-28T11:55:24.938Z,92809.19
2022-09-28T11:56:36.106Z,92807.34
2022-09-28T11:57:38.735Z,92818.69
2022-09-28T11:58:46.431Z,92809.72
2022-09-28T11:59:58.409Z,92808.28
2022-09-28T12:01:03.748Z,92810.69
2022-09-28T12:02:15.739Z,92804.75
2022-09-28T12:03:21.719Z,92805.44
2022-09-28T12:04:25.077Z,92804.50
2022-09-28T12:05:39.306Z,92792.13
2022-09-28T12:06:45.362Z,92804.78
2022-09-28T12:07:47.516Z,92797.59
2022-09-28T12:08:53.567Z,92780.00
2022-09-28T12:10:01.290Z,92789.47
2022-09-28T12:11:00.801Z,92797.16
2022-09-28T12:12:02.767Z,92806.47